Tropical Cyclones
[Index]
Main Index Home Page Stock Weather Photos Extreme Storms Discussion Storm News and Storm Chasing Reports Tropical Cyclones / Hurricanes / Typhoons Weather Data and Links Wild Fires / Bushfires Weather Observation Techniques Weather Picture Catalogue Tornado Pictures and Reports Stock Video Footage and DVDs for sale
Season 2004-2005 Tropical Cyclone VIVIENNE Track Map
Season 2004-2005 Summaries (Operational Data): [AU] [SIO] [SPAC] [SH]
<<- Previous TC | 2004-2005 Season | Next TC ->>

click for intensity scale information  Lat/long Grid: Show Hide

 Date Labels: Show Hide

Operational Tropical Cyclone Data : JTWC Advisories

Name: VIVIENNE
Number: 0517

05 Feb 2005 02:00 UTC to 10 Feb 2005 04:00 UTC

    date/time    lat    long     hPa   cat  kts
2005-02-05 02   15.5   117.5     995         30          
2005-02-05 04   15.7   117.4     995         30          
2005-02-05 10   15.9   117.3     995         30          
2005-02-05 16   16.2   116.8     995         30          
2005-02-05 22   16.3   116.5     995         30          
2005-02-06 04   16.2   116.4     995         30          
2005-02-06 10   16.2   116.4     995         30          
2005-02-06 16   16.5   116.7     995         30          
2005-02-06 22   16.5   116.6     995         30          
2005-02-07 04   16.4   116.5     995         30          
2005-02-07 10   16.3   116.3     995         30          
2005-02-07 16   16.3   116.3     995         30          
2005-02-07 22   16.2   116.3     995         30          
2005-02-08 04   15.8   116.0     990    1    45          
2005-02-08 10   15.3   115.9     990    1    45          
2005-02-08 16   15.7   115.9     990    1    45          
2005-02-08 22   15.5   116.8     995         30          
2005-02-09 04   16.0   117.0     998         25          
2005-02-10 04   16.1   117.0    1004         20          
Winds are 10-min average.

Tropical cyclone tracks developed by Michael Bath using operational warnings and advisories and Google Maps.


[Australian Severe Weather index] [Copyright Notice] [Email Contacts] [Search This Site] [Privacy Policy]
Document: tropical_cyclone_vivienne.htm Updated: 28 May 2013